sensor_id;sensor_type;location;lat;lon;timestamp;P1;durP1;ratioP1;P2;durP2;ratioP2
20140;SDS011;10231;47.702;9.826;2023-09-30T00:01:00;19.43;;;9.60;;
20140;SDS011;10231;47.702;9.826;2023-09-30T00:03:27;19.23;;;8.93;;
20140;SDS011;10231;47.702;9.826;2023-09-30T00:05:53;18.50;;;8.67;;
20140;SDS011;10231;47.702;9.826;2023-09-30T00:08:19;18.00;;;8.77;;
20140;SDS011;10231;47.702;9.826;2023-09-30T00:10:44;16.13;;;9.27;;
20140;SDS011;10231;47.702;9.826;2023-09-30T00:13:11;17.60;;;8.93;;
20140;SDS011;10231;47.702;9.826;2023-09-30T00:15:37;19.73;;;9.30;;
20140;SDS011;10231;47.702;9.826;2023-09-30T00:18:03;19.40;;;9.33;;
20140;SDS011;10231;47.702;9.826;2023-09-30T00:20:29;19.57;;;9.07;;
20140;SDS011;10231;47.702;9.826;2023-09-30T00:22:54;17.43;;;8.13;;
20140;SDS011;10231;47.702;9.826;2023-09-30T00:25:20;19.03;;;8.70;;
20140;SDS011;10231;47.702;9.826;2023-09-30T00:27:46;19.53;;;8.63;;
20140;SDS011;10231;47.702;9.826;2023-09-30T00:30:12;17.53;;;8.60;;
20140;SDS011;10231;47.702;9.826;2023-09-30T00:32:38;16.60;;;8.50;;
20140;SDS011;10231;47.702;9.826;2023-09-30T00:35:04;18.50;;;9.50;;
20140;SDS011;10231;47.702;9.826;2023-09-30T00:37:39;16.40;;;8.83;;
20140;SDS011;10231;47.702;9.826;2023-09-30T00:40:06;17.07;;;8.77;;
20140;SDS011;10231;47.702;9.826;2023-09-30T00:42:32;17.33;;;8.50;;
20140;SDS011;10231;47.702;9.826;2023-09-30T00:44:57;18.80;;;9.03;;
20140;SDS011;10231;47.702;9.826;2023-09-30T00:47:23;18.93;;;8.67;;
20140;SDS011;10231;47.702;9.826;2023-09-30T00:49:51;16.17;;;8.80;;
20140;SDS011;10231;47.702;9.826;2023-09-30T00:52:18;17.07;;;8.20;;
20140;SDS011;10231;47.702;9.826;2023-09-30T00:54:44;17.70;;;7.50;;
20140;SDS011;10231;47.702;9.826;2023-09-30T00:57:12;17.13;;;8.00;;
20140;SDS011;10231;47.702;9.826;2023-09-30T00:59:38;16.03;;;7.90;;
20140;SDS011;10231;47.702;9.826;2023-09-30T01:02:05;14.80;;;7.00;;
20140;SDS011;10231;47.702;9.826;2023-09-30T01:04:31;14.73;;;8.00;;
20140;SDS011;10231;47.702;9.826;2023-09-30T01:06:57;14.20;;;7.90;;
20140;SDS011;10231;47.702;9.826;2023-09-30T01:09:23;15.70;;;8.23;;
20140;SDS011;10231;47.702;9.826;2023-09-30T01:11:49;16.40;;;7.57;;
20140;SDS011;10231;47.702;9.826;2023-09-30T01:14:31;16.90;;;8.07;;
20140;SDS011;10231;47.702;9.826;2023-09-30T01:16:59;15.40;;;7.90;;
20140;SDS011;10231;47.702;9.826;2023-09-30T01:19:25;18.13;;;8.50;;
20140;SDS011;10231;47.702;9.826;2023-09-30T01:21:52;16.37;;;7.80;;
20140;SDS011;10231;47.702;9.826;2023-09-30T01:24:29;16.53;;;8.10;;
20140;SDS011;10231;47.702;9.826;2023-09-30T01:26:55;16.53;;;8.17;;
20140;SDS011;10231;47.702;9.826;2023-09-30T01:29:21;17.53;;;8.70;;
20140;SDS011;10231;47.702;9.826;2023-09-30T01:31:47;15.43;;;7.97;;
20140;SDS011;10231;47.702;9.826;2023-09-30T01:34:16;16.83;;;8.27;;
20140;SDS011;10231;47.702;9.826;2023-09-30T01:36:42;19.10;;;9.27;;
20140;SDS011;10231;47.702;9.826;2023-09-30T01:39:09;19.13;;;9.47;;
20140;SDS011;10231;47.702;9.826;2023-09-30T01:41:36;19.10;;;9.47;;
20140;SDS011;10231;47.702;9.826;2023-09-30T01:44:02;20.23;;;10.03;;
20140;SDS011;10231;47.702;9.826;2023-09-30T01:46:28;19.63;;;9.47;;
20140;SDS011;10231;47.702;9.826;2023-09-30T01:48:53;19.37;;;9.67;;
20140;SDS011;10231;47.702;9.826;2023-09-30T01:51:19;18.10;;;9.47;;
20140;SDS011;10231;47.702;9.826;2023-09-30T01:53:44;17.20;;;8.50;;
20140;SDS011;10231;47.702;9.826;2023-09-30T01:56:10;18.67;;;8.50;;
20140;SDS011;10231;47.702;9.826;2023-09-30T01:58:35;20.27;;;9.87;;
20140;SDS011;10231;47.702;9.826;2023-09-30T02:01:04;19.23;;;9.60;;
20140;SDS011;10231;47.702;9.826;2023-09-30T02:03:30;18.63;;;9.10;;
20140;SDS011;10231;47.702;9.826;2023-09-30T02:05:56;18.07;;;9.17;;
20140;SDS011;10231;47.702;9.826;2023-09-30T02:08:23;18.13;;;8.80;;
20140;SDS011;10231;47.702;9.826;2023-09-30T02:10:48;17.83;;;9.17;;
20140;SDS011;10231;47.702;9.826;2023-09-30T02:13:16;20.77;;;9.67;;
20140;SDS011;10231;47.702;9.826;2023-09-30T02:15:41;19.40;;;9.00;;
20140;SDS011;10231;47.702;9.826;2023-09-30T02:18:07;14.90;;;8.20;;
20140;SDS011;10231;47.702;9.826;2023-09-30T02:20:34;20.43;;;9.43;;
20140;SDS011;10231;47.702;9.826;2023-09-30T02:23:01;17.00;;;8.27;;
20140;SDS011;10231;47.702;9.826;2023-09-30T02:25:27;18.13;;;8.70;;
20140;SDS011;10231;47.702;9.826;2023-09-30T02:27:53;18.37;;;8.93;;
20140;SDS011;10231;47.702;9.826;2023-09-30T02:30:19;16.93;;;8.13;;
20140;SDS011;10231;47.702;9.826;2023-09-30T02:32:46;15.33;;;8.50;;
20140;SDS011;10231;47.702;9.826;2023-09-30T02:35:11;16.27;;;8.73;;
20140;SDS011;10231;47.702;9.826;2023-09-30T02:37:38;14.20;;;7.97;;
20140;SDS011;10231;47.702;9.826;2023-09-30T02:40:05;20.07;;;9.60;;
20140;SDS011;10231;47.702;9.826;2023-09-30T02:42:36;16.13;;;8.30;;
20140;SDS011;10231;47.702;9.826;2023-09-30T02:45:05;18.87;;;9.20;;
20140;SDS011;10231;47.702;9.826;2023-09-30T02:47:33;18.13;;;8.87;;
20140;SDS011;10231;47.702;9.826;2023-09-30T02:49:59;17.13;;;8.63;;
20140;SDS011;10231;47.702;9.826;2023-09-30T02:52:25;17.47;;;9.10;;
20140;SDS011;10231;47.702;9.826;2023-09-30T02:54:50;14.50;;;8.73;;
20140;SDS011;10231;47.702;9.826;2023-09-30T02:57:16;19.37;;;8.70;;
20140;SDS011;10231;47.702;9.826;2023-09-30T02:59:43;17.13;;;9.27;;
20140;SDS011;10231;47.702;9.826;2023-09-30T03:02:09;18.17;;;8.77;;
20140;SDS011;10231;47.702;9.826;2023-09-30T03:04:36;19.37;;;9.57;;
20140;SDS011;10231;47.702;9.826;2023-09-30T03:07:02;18.53;;;8.87;;
20140;SDS011;10231;47.702;9.826;2023-09-30T03:09:27;19.10;;;9.53;;
20140;SDS011;10231;47.702;9.826;2023-09-30T03:11:53;19.30;;;8.63;;
20140;SDS011;10231;47.702;9.826;2023-09-30T03:14:21;17.37;;;8.77;;
20140;SDS011;10231;47.702;9.826;2023-09-30T03:16:47;17.57;;;8.70;;
20140;SDS011;10231;47.702;9.826;2023-09-30T03:19:13;18.77;;;9.17;;
20140;SDS011;10231;47.702;9.826;2023-09-30T03:21:41;16.83;;;8.40;;
20140;SDS011;10231;47.702;9.826;2023-09-30T03:24:07;15.73;;;8.07;;
20140;SDS011;10231;47.702;9.826;2023-09-30T03:26:33;15.37;;;7.47;;
20140;SDS011;10231;47.702;9.826;2023-09-30T03:28:58;18.23;;;8.57;;
20140;SDS011;10231;47.702;9.826;2023-09-30T03:31:24;17.70;;;9.00;;
20140;SDS011;10231;47.702;9.826;2023-09-30T03:33:50;16.20;;;8.33;;
20140;SDS011;10231;47.702;9.826;2023-09-30T03:36:19;15.73;;;8.53;;
20140;SDS011;10231;47.702;9.826;2023-09-30T03:38:51;16.17;;;8.10;;
20140;SDS011;10231;47.702;9.826;2023-09-30T03:41:23;18.63;;;8.63;;
20140;SDS011;10231;47.702;9.826;2023-09-30T03:43:49;15.57;;;7.80;;
20140;SDS011;10231;47.702;9.826;2023-09-30T03:46:15;15.60;;;7.97;;
20140;SDS011;10231;47.702;9.826;2023-09-30T03:48:41;15.30;;;7.90;;
20140;SDS011;10231;47.702;9.826;2023-09-30T03:51:11;15.00;;;7.93;;
20140;SDS011;10231;47.702;9.826;2023-09-30T03:53:39;16.60;;;8.30;;
20140;SDS011;10231;47.702;9.826;2023-09-30T03:56:08;16.60;;;8.43;;
20140;SDS011;10231;47.702;9.826;2023-09-30T03:58:36;15.70;;;7.97;;
20140;SDS011;10231;47.702;9.826;2023-09-30T04:01:06;16.80;;;8.57;;
20140;SDS011;10231;47.702;9.826;2023-09-30T04:03:32;17.73;;;8.07;;
20140;SDS011;10231;47.702;9.826;2023-09-30T04:05:59;15.93;;;8.10;;
20140;SDS011;10231;47.702;9.826;2023-09-30T04:08:26;17.60;;;8.53;;
20140;SDS011;10231;47.702;9.826;2023-09-30T04:10:51;13.83;;;7.47;;
20140;SDS011;10231;47.702;9.826;2023-09-30T04:13:17;17.87;;;8.30;;
20140;SDS011;10231;47.702;9.826;2023-09-30T04:15:47;15.63;;;7.90;;
20140;SDS011;10231;47.702;9.826;2023-09-30T04:18:14;14.70;;;7.50;;
20140;SDS011;10231;47.702;9.826;2023-09-30T04:20:40;17.47;;;7.60;;
20140;SDS011;10231;47.702;9.826;2023-09-30T04:23:06;14.53;;;7.53;;
20140;SDS011;10231;47.702;9.826;2023-09-30T04:25:34;17.80;;;9.23;;
20140;SDS011;10231;47.702;9.826;2023-09-30T04:28:00;19.47;;;7.97;;
20140;SDS011;10231;47.702;9.826;2023-09-30T04:30:27;15.93;;;8.07;;
20140;SDS011;10231;47.702;9.826;2023-09-30T04:32:54;17.50;;;8.33;;
20140;SDS011;10231;47.702;9.826;2023-09-30T04:35:20;15.87;;;7.90;;
20140;SDS011;10231;47.702;9.826;2023-09-30T04:37:46;15.00;;;8.17;;
20140;SDS011;10231;47.702;9.826;2023-09-30T04:40:12;15.27;;;8.00;;
20140;SDS011;10231;47.702;9.826;2023-09-30T04:42:41;18.30;;;7.77;;
20140;SDS011;10231;47.702;9.826;2023-09-30T04:45:09;15.13;;;7.37;;
20140;SDS011;10231;47.702;9.826;2023-09-30T04:47:35;16.43;;;8.30;;
20140;SDS011;10231;47.702;9.826;2023-09-30T04:50:03;18.67;;;8.10;;
20140;SDS011;10231;47.702;9.826;2023-09-30T04:52:32;18.17;;;8.57;;
20140;SDS011;10231;47.702;9.826;2023-09-30T04:54:58;16.10;;;8.33;;
20140;SDS011;10231;47.702;9.826;2023-09-30T04:57:25;15.57;;;8.60;;
20140;SDS011;10231;47.702;9.826;2023-09-30T04:59:51;13.60;;;7.03;;
20140;SDS011;10231;47.702;9.826;2023-09-30T05:02:16;14.83;;;7.33;;
20140;SDS011;10231;47.702;9.826;2023-09-30T05:04:42;16.60;;;8.13;;
20140;SDS011;10231;47.702;9.826;2023-09-30T05:07:08;15.50;;;7.03;;
20140;SDS011;10231;47.702;9.826;2023-09-30T05:09:33;14.33;;;6.90;;
20140;SDS011;10231;47.702;9.826;2023-09-30T05:11:59;18.87;;;8.20;;
20140;SDS011;10231;47.702;9.826;2023-09-30T05:14:25;16.00;;;7.63;;
20140;SDS011;10231;47.702;9.826;2023-09-30T05:16:52;14.97;;;7.53;;
20140;SDS011;10231;47.702;9.826;2023-09-30T05:19:18;16.63;;;7.80;;
20140;SDS011;10231;47.702;9.826;2023-09-30T05:21:44;16.40;;;7.50;;
20140;SDS011;10231;47.702;9.826;2023-09-30T05:24:10;15.27;;;7.53;;
20140;SDS011;10231;47.702;9.826;2023-09-30T05:26:36;14.97;;;7.27;;
20140;SDS011;10231;47.702;9.826;2023-09-30T05:29:01;15.70;;;7.30;;
20140;SDS011;10231;47.702;9.826;2023-09-30T05:31:28;19.93;;;7.93;;
20140;SDS011;10231;47.702;9.826;2023-09-30T05:33:54;15.60;;;7.47;;
20140;SDS011;10231;47.702;9.826;2023-09-30T05:36:20;15.63;;;8.27;;
20140;SDS011;10231;47.702;9.826;2023-09-30T05:38:46;15.63;;;7.30;;
20140;SDS011;10231;47.702;9.826;2023-09-30T05:41:13;16.97;;;8.17;;
20140;SDS011;10231;47.702;9.826;2023-09-30T05:43:40;16.87;;;7.63;;
20140;SDS011;10231;47.702;9.826;2023-09-30T05:46:08;13.70;;;7.33;;
20140;SDS011;10231;47.702;9.826;2023-09-30T05:48:34;19.07;;;8.30;;
20140;SDS011;10231;47.702;9.826;2023-09-30T05:50:59;15.40;;;7.53;;
20140;SDS011;10231;47.702;9.826;2023-09-30T05:53:25;17.23;;;8.10;;
20140;SDS011;10231;47.702;9.826;2023-09-30T05:55:52;15.93;;;7.13;;
20140;SDS011;10231;47.702;9.826;2023-09-30T05:58:18;15.53;;;7.93;;
20140;SDS011;10231;47.702;9.826;2023-09-30T06:00:44;17.47;;;8.00;;
20140;SDS011;10231;47.702;9.826;2023-09-30T06:03:10;13.60;;;6.93;;
20140;SDS011;10231;47.702;9.826;2023-09-30T06:05:39;18.57;;;7.33;;
20140;SDS011;10231;47.702;9.826;2023-09-30T06:08:06;15.37;;;7.90;;
20140;SDS011;10231;47.702;9.826;2023-09-30T06:10:35;14.57;;;7.40;;
20140;SDS011;10231;47.702;9.826;2023-09-30T06:13:03;15.90;;;8.00;;
20140;SDS011;10231;47.702;9.826;2023-09-30T06:15:29;15.03;;;7.23;;
20140;SDS011;10231;47.702;9.826;2023-09-30T06:17:56;13.47;;;7.30;;
20140;SDS011;10231;47.702;9.826;2023-09-30T06:20:22;16.13;;;7.30;;
20140;SDS011;10231;47.702;9.826;2023-09-30T06:22:51;17.13;;;8.30;;
20140;SDS011;10231;47.702;9.826;2023-09-30T06:25:19;17.93;;;9.53;;
20140;SDS011;10231;47.702;9.826;2023-09-30T06:27:45;17.37;;;9.40;;
20140;SDS011;10231;47.702;9.826;2023-09-30T06:30:12;16.03;;;7.57;;
20140;SDS011;10231;47.702;9.826;2023-09-30T06:32:41;16.13;;;8.03;;
20140;SDS011;10231;47.702;9.826;2023-09-30T06:35:08;14.20;;;7.70;;
20140;SDS011;10231;47.702;9.826;2023-09-30T06:37:38;16.90;;;8.13;;
20140;SDS011;10231;47.702;9.826;2023-09-30T06:40:05;19.73;;;7.70;;
20140;SDS011;10231;47.702;9.826;2023-09-30T06:42:33;15.10;;;7.20;;
20140;SDS011;10231;47.702;9.826;2023-09-30T06:45:00;14.90;;;6.93;;
20140;SDS011;10231;47.702;9.826;2023-09-30T06:47:26;12.77;;;6.37;;
20140;SDS011;10231;47.702;9.826;2023-09-30T06:49:52;13.50;;;6.30;;
20140;SDS011;10231;47.702;9.826;2023-09-30T06:52:18;15.00;;;6.83;;
20140;SDS011;10231;47.702;9.826;2023-09-30T06:54:45;18.57;;;8.03;;
20140;SDS011;10231;47.702;9.826;2023-09-30T06:57:10;14.10;;;7.10;;
20140;SDS011;10231;47.702;9.826;2023-09-30T06:59:36;13.30;;;6.93;;
20140;SDS011;10231;47.702;9.826;2023-09-30T07:02:02;12.93;;;6.57;;
20140;SDS011;10231;47.702;9.826;2023-09-30T07:04:29;14.70;;;6.80;;
20140;SDS011;10231;47.702;9.826;2023-09-30T07:06:55;15.10;;;6.80;;
20140;SDS011;10231;47.702;9.826;2023-09-30T07:09:20;14.47;;;6.83;;
20140;SDS011;10231;47.702;9.826;2023-09-30T07:11:46;13.93;;;6.27;;
20140;SDS011;10231;47.702;9.826;2023-09-30T07:14:14;14.33;;;6.20;;
20140;SDS011;10231;47.702;9.826;2023-09-30T07:16:39;13.17;;;7.23;;
20140;SDS011;10231;47.702;9.826;2023-09-30T07:19:05;16.77;;;6.53;;
20140;SDS011;10231;47.702;9.826;2023-09-30T07:21:31;17.17;;;7.70;;
20140;SDS011;10231;47.702;9.826;2023-09-30T07:23:56;13.90;;;6.30;;
20140;SDS011;10231;47.702;9.826;2023-09-30T07:26:25;13.03;;;6.77;;
20140;SDS011;10231;47.702;9.826;2023-09-30T07:28:51;11.80;;;5.13;;
20140;SDS011;10231;47.702;9.826;2023-09-30T07:31:18;15.00;;;6.40;;
20140;SDS011;10231;47.702;9.826;2023-09-30T07:33:44;13.20;;;6.07;;
20140;SDS011;10231;47.702;9.826;2023-09-30T07:36:10;15.87;;;6.80;;
20140;SDS011;10231;47.702;9.826;2023-09-30T07:38:35;12.33;;;5.77;;
20140;SDS011;10231;47.702;9.826;2023-09-30T07:41:01;12.07;;;5.83;;
20140;SDS011;10231;47.702;9.826;2023-09-30T07:43:28;10.67;;;5.57;;
20140;SDS011;10231;47.702;9.826;2023-09-30T07:45:53;13.13;;;5.47;;
20140;SDS011;10231;47.702;9.826;2023-09-30T07:48:19;11.10;;;5.80;;
20140;SDS011;10231;47.702;9.826;2023-09-30T07:50:45;12.30;;;6.93;;
20140;SDS011;10231;47.702;9.826;2023-09-30T07:53:12;14.17;;;5.80;;
20140;SDS011;10231;47.702;9.826;2023-09-30T07:55:38;11.53;;;5.33;;
20140;SDS011;10231;47.702;9.826;2023-09-30T07:58:04;12.20;;;5.47;;
20140;SDS011;10231;47.702;9.826;2023-09-30T08:00:30;9.90;;;5.23;;
20140;SDS011;10231;47.702;9.826;2023-09-30T08:02:55;10.47;;;4.97;;
20140;SDS011;10231;47.702;9.826;2023-09-30T08:05:21;10.57;;;5.07;;
20140;SDS011;10231;47.702;9.826;2023-09-30T08:07:47;9.50;;;5.13;;
20140;SDS011;10231;47.702;9.826;2023-09-30T08:10:12;9.77;;;4.80;;
20140;SDS011;10231;47.702;9.826;2023-09-30T08:12:39;10.83;;;4.70;;
20140;SDS011;10231;47.702;9.826;2023-09-30T08:15:06;9.13;;;4.53;;
20140;SDS011;10231;47.702;9.826;2023-09-30T08:17:32;8.77;;;4.80;;
20140;SDS011;10231;47.702;9.826;2023-09-30T08:19:58;10.40;;;4.47;;
20140;SDS011;10231;47.702;9.826;2023-09-30T08:22:24;9.77;;;4.57;;
20140;SDS011;10231;47.702;9.826;2023-09-30T08:24:53;8.43;;;4.20;;
20140;SDS011;10231;47.702;9.826;2023-09-30T08:27:19;8.47;;;4.13;;
20140;SDS011;10231;47.702;9.826;2023-09-30T08:29:45;9.67;;;4.87;;
20140;SDS011;10231;47.702;9.826;2023-09-30T08:32:11;8.00;;;4.03;;
20140;SDS011;10231;47.702;9.826;2023-09-30T08:34:36;10.60;;;5.00;;
20140;SDS011;10231;47.702;9.826;2023-09-30T08:37:02;12.13;;;5.10;;
20140;SDS011;10231;47.702;9.826;2023-09-30T08:39:28;8.10;;;4.23;;
20140;SDS011;10231;47.702;9.826;2023-09-30T08:41:54;9.53;;;4.80;;
20140;SDS011;10231;47.702;9.826;2023-09-30T08:44:21;9.10;;;4.53;;
20140;SDS011;10231;47.702;9.826;2023-09-30T08:46:47;11.17;;;5.17;;
20140;SDS011;10231;47.702;9.826;2023-09-30T08:49:14;11.63;;;5.13;;
20140;SDS011;10231;47.702;9.826;2023-09-30T08:51:40;11.07;;;5.30;;
20140;SDS011;10231;47.702;9.826;2023-09-30T08:54:06;10.03;;;5.50;;
20140;SDS011;10231;47.702;9.826;2023-09-30T08:56:32;10.60;;;5.50;;
20140;SDS011;10231;47.702;9.826;2023-09-30T08:58:58;10.13;;;5.17;;
20140;SDS011;10231;47.702;9.826;2023-09-30T09:01:26;10.63;;;5.27;;
20140;SDS011;10231;47.702;9.826;2023-09-30T09:03:52;13.13;;;5.20;;
20140;SDS011;10231;47.702;9.826;2023-09-30T09:06:22;10.93;;;5.33;;
20140;SDS011;10231;47.702;9.826;2023-09-30T09:08:48;10.57;;;5.33;;
20140;SDS011;10231;47.702;9.826;2023-09-30T09:11:14;10.73;;;5.50;;
20140;SDS011;10231;47.702;9.826;2023-09-30T09:13:50;9.17;;;4.90;;
20140;SDS011;10231;47.702;9.826;2023-09-30T09:16:20;9.73;;;4.47;;
20140;SDS011;10231;47.702;9.826;2023-09-30T09:18:47;9.50;;;4.73;;
20140;SDS011;10231;47.702;9.826;2023-09-30T09:23:40;11.27;;;5.77;;
20140;SDS011;10231;47.702;9.826;2023-09-30T09:26:10;13.27;;;5.70;;
20140;SDS011;10231;47.702;9.826;2023-09-30T09:28:37;12.47;;;5.97;;
20140;SDS011;10231;47.702;9.826;2023-09-30T09:31:19;11.70;;;6.30;;
20140;SDS011;10231;47.702;9.826;2023-09-30T09:33:47;11.93;;;5.50;;
20140;SDS011;10231;47.702;9.826;2023-09-30T09:36:13;14.10;;;5.57;;
20140;SDS011;10231;47.702;9.826;2023-09-30T09:38:59;12.23;;;6.30;;
20140;SDS011;10231;47.702;9.826;2023-09-30T09:41:24;12.57;;;6.20;;
20140;SDS011;10231;47.702;9.826;2023-09-30T09:43:49;12.10;;;5.10;;
20140;SDS011;10231;47.702;9.826;2023-09-30T09:46:18;10.67;;;5.70;;
20140;SDS011;10231;47.702;9.826;2023-09-30T09:48:44;13.53;;;6.00;;
20140;SDS011;10231;47.702;9.826;2023-09-30T09:51:12;12.27;;;6.53;;
20140;SDS011;10231;47.702;9.826;2023-09-30T09:53:39;13.00;;;6.37;;
20140;SDS011;10231;47.702;9.826;2023-09-30T09:56:09;11.57;;;5.97;;
20140;SDS011;10231;47.702;9.826;2023-09-30T09:58:39;12.53;;;6.00;;
20140;SDS011;10231;47.702;9.826;2023-09-30T10:01:07;11.63;;;5.60;;
20140;SDS011;10231;47.702;9.826;2023-09-30T10:03:37;12.20;;;6.00;;
20140;SDS011;10231;47.702;9.826;2023-09-30T10:06:04;12.03;;;6.33;;
20140;SDS011;10231;47.702;9.826;2023-09-30T10:08:32;15.27;;;6.40;;
20140;SDS011;10231;47.702;9.826;2023-09-30T10:11:01;13.17;;;5.90;;
20140;SDS011;10231;47.702;9.826;2023-09-30T10:19:14;14.57;;;7.53;;
20140;SDS011;10231;47.702;9.826;2023-09-30T10:24:47;15.20;;;7.23;;
20140;SDS011;10231;47.702;9.826;2023-09-30T10:27:27;16.37;;;7.13;;
20140;SDS011;10231;47.702;9.826;2023-09-30T10:29:56;14.03;;;6.57;;
20140;SDS011;10231;47.702;9.826;2023-09-30T10:38:36;16.00;;;6.97;;
20140;SDS011;10231;47.702;9.826;2023-09-30T10:40:58;14.07;;;7.20;;
20140;SDS011;10231;47.702;9.826;2023-09-30T10:43:34;12.50;;;7.00;;
20140;SDS011;10231;47.702;9.826;2023-09-30T10:46:01;14.90;;;7.37;;
20140;SDS011;10231;47.702;9.826;2023-09-30T10:48:47;15.07;;;7.00;;
20140;SDS011;10231;47.702;9.826;2023-09-30T10:51:17;13.83;;;6.90;;
20140;SDS011;10231;47.702;9.826;2023-09-30T10:53:52;15.70;;;7.83;;
20140;SDS011;10231;47.702;9.826;2023-09-30T10:56:22;14.97;;;6.97;;
20140;SDS011;10231;47.702;9.826;2023-09-30T11:01:16;14.80;;;7.13;;
20140;SDS011;10231;47.702;9.826;2023-09-30T11:03:43;12.43;;;6.80;;
20140;SDS011;10231;47.702;9.826;2023-09-30T11:06:11;14.30;;;7.17;;
20140;SDS011;10231;47.702;9.826;2023-09-30T11:08:40;13.43;;;7.37;;
20140;SDS011;10231;47.702;9.826;2023-09-30T11:11:11;13.23;;;7.10;;
20140;SDS011;10231;47.702;9.826;2023-09-30T11:13:36;13.93;;;7.23;;
20140;SDS011;10231;47.702;9.826;2023-09-30T11:16:04;14.50;;;7.27;;
20140;SDS011;10231;47.702;9.826;2023-09-30T11:18:30;15.40;;;7.20;;
20140;SDS011;10231;47.702;9.826;2023-09-30T11:21:03;18.03;;;7.67;;
20140;SDS011;10231;47.702;9.826;2023-09-30T11:23:30;14.73;;;6.93;;
20140;SDS011;10231;47.702;9.826;2023-09-30T11:25:56;15.47;;;7.60;;
20140;SDS011;10231;47.702;9.826;2023-09-30T11:28:22;14.87;;;7.47;;
20140;SDS011;10231;47.702;9.826;2023-09-30T11:30:57;18.27;;;8.73;;
20140;SDS011;10231;47.702;9.826;2023-09-30T11:33:25;16.63;;;8.30;;
20140;SDS011;10231;47.702;9.826;2023-09-30T11:38:23;15.30;;;7.60;;
20140;SDS011;10231;47.702;9.826;2023-09-30T11:41:02;16.87;;;7.87;;
20140;SDS011;10231;47.702;9.826;2023-09-30T11:43:30;15.67;;;7.63;;
20140;SDS011;10231;47.702;9.826;2023-09-30T11:48:36;16.50;;;8.00;;
20140;SDS011;10231;47.702;9.826;2023-09-30T11:51:02;16.63;;;7.83;;
20140;SDS011;10231;47.702;9.826;2023-09-30T11:53:30;16.30;;;8.13;;
20140;SDS011;10231;47.702;9.826;2023-09-30T11:55:56;17.23;;;8.07;;
20140;SDS011;10231;47.702;9.826;2023-09-30T11:58:23;15.67;;;7.53;;
20140;SDS011;10231;47.702;9.826;2023-09-30T12:00:53;15.93;;;7.60;;
20140;SDS011;10231;47.702;9.826;2023-09-30T12:03:24;17.90;;;8.40;;
20140;SDS011;10231;47.702;9.826;2023-09-30T12:05:52;14.67;;;7.63;;
20140;SDS011;10231;47.702;9.826;2023-09-30T12:08:20;15.70;;;7.37;;
20140;SDS011;10231;47.702;9.826;2023-09-30T12:10:46;15.40;;;8.13;;
20140;SDS011;10231;47.702;9.826;2023-09-30T12:13:12;17.97;;;7.60;;
20140;SDS011;10231;47.702;9.826;2023-09-30T12:15:40;14.77;;;7.90;;
20140;SDS011;10231;47.702;9.826;2023-09-30T12:18:06;16.67;;;7.80;;
20140;SDS011;10231;47.702;9.826;2023-09-30T12:20:32;16.63;;;8.43;;
20140;SDS011;10231;47.702;9.826;2023-09-30T12:22:58;17.20;;;7.50;;
20140;SDS011;10231;47.702;9.826;2023-09-30T12:25:24;15.77;;;8.00;;
20140;SDS011;10231;47.702;9.826;2023-09-30T12:27:50;16.33;;;7.87;;
20140;SDS011;10231;47.702;9.826;2023-09-30T12:30:16;16.17;;;8.90;;
20140;SDS011;10231;47.702;9.826;2023-09-30T12:32:45;17.83;;;7.53;;
20140;SDS011;10231;47.702;9.826;2023-09-30T12:35:10;16.27;;;8.37;;
20140;SDS011;10231;47.702;9.826;2023-09-30T12:37:37;16.33;;;8.20;;
20140;SDS011;10231;47.702;9.826;2023-09-30T12:40:04;16.90;;;8.83;;
20140;SDS011;10231;47.702;9.826;2023-09-30T12:42:33;14.27;;;7.67;;
20140;SDS011;10231;47.702;9.826;2023-09-30T12:45:01;14.37;;;7.60;;
20140;SDS011;10231;47.702;9.826;2023-09-30T12:47:27;14.33;;;7.07;;
20140;SDS011;10231;47.702;9.826;2023-09-30T12:49:53;14.53;;;7.40;;
20140;SDS011;10231;47.702;9.826;2023-09-30T12:52:21;19.80;;;7.87;;
20140;SDS011;10231;47.702;9.826;2023-09-30T12:54:48;15.27;;;7.00;;
20140;SDS011;10231;47.702;9.826;2023-09-30T12:57:13;15.43;;;6.97;;
20140;SDS011;10231;47.702;9.826;2023-09-30T12:59:42;14.43;;;7.63;;
20140;SDS011;10231;47.702;9.826;2023-09-30T13:02:11;14.57;;;6.97;;
20140;SDS011;10231;47.702;9.826;2023-09-30T13:04:36;15.13;;;7.60;;
20140;SDS011;10231;47.702;9.826;2023-09-30T13:07:07;15.60;;;8.33;;
20140;SDS011;10231;47.702;9.826;2023-09-30T13:09:33;15.90;;;9.63;;
20140;SDS011;10231;47.702;9.826;2023-09-30T13:11:59;17.67;;;9.50;;
20140;SDS011;10231;47.702;9.826;2023-09-30T13:14:25;16.10;;;8.20;;
20140;SDS011;10231;47.702;9.826;2023-09-30T13:16:53;17.27;;;8.27;;
20140;SDS011;10231;47.702;9.826;2023-09-30T13:19:19;19.13;;;8.27;;
20140;SDS011;10231;47.702;9.826;2023-09-30T13:21:46;15.80;;;8.33;;
20140;SDS011;10231;47.702;9.826;2023-09-30T13:24:13;15.97;;;7.60;;
20140;SDS011;10231;47.702;9.826;2023-09-30T13:26:39;16.50;;;8.30;;
20140;SDS011;10231;47.702;9.826;2023-09-30T13:29:04;15.00;;;7.43;;
20140;SDS011;10231;47.702;9.826;2023-09-30T13:31:30;15.53;;;6.77;;
20140;SDS011;10231;47.702;9.826;2023-09-30T13:33:56;14.87;;;7.73;;
20140;SDS011;10231;47.702;9.826;2023-09-30T13:36:22;13.03;;;7.00;;
20140;SDS011;10231;47.702;9.826;2023-09-30T13:38:47;14.73;;;7.40;;
20140;SDS011;10231;47.702;9.826;2023-09-30T13:41:14;17.33;;;8.50;;
20140;SDS011;10231;47.702;9.826;2023-09-30T13:43:40;15.57;;;7.57;;
20140;SDS011;10231;47.702;9.826;2023-09-30T13:46:06;16.27;;;8.23;;
20140;SDS011;10231;47.702;9.826;2023-09-30T13:48:32;14.57;;;8.07;;
20140;SDS011;10231;47.702;9.826;2023-09-30T13:51:07;17.20;;;8.73;;
20140;SDS011;10231;47.702;9.826;2023-09-30T13:53:34;18.93;;;7.80;;
20140;SDS011;10231;47.702;9.826;2023-09-30T13:56:00;14.57;;;7.97;;
20140;SDS011;10231;47.702;9.826;2023-09-30T13:58:26;16.27;;;7.80;;
20140;SDS011;10231;47.702;9.826;2023-09-30T14:00:52;14.90;;;7.30;;
20140;SDS011;10231;47.702;9.826;2023-09-30T14:03:23;16.23;;;7.10;;
20140;SDS011;10231;47.702;9.826;2023-09-30T14:05:53;14.43;;;7.07;;
20140;SDS011;10231;47.702;9.826;2023-09-30T14:08:32;14.67;;;6.77;;
20140;SDS011;10231;47.702;9.826;2023-09-30T14:11:01;13.30;;;7.03;;
20140;SDS011;10231;47.702;9.826;2023-09-30T14:13:30;12.47;;;6.63;;
20140;SDS011;10231;47.702;9.826;2023-09-30T14:15:57;15.93;;;7.50;;
20140;SDS011;10231;47.702;9.826;2023-09-30T14:18:27;15.30;;;7.33;;
20140;SDS011;10231;47.702;9.826;2023-09-30T14:21:12;15.23;;;7.27;;
20140;SDS011;10231;47.702;9.826;2023-09-30T14:23:40;15.10;;;7.30;;
20140;SDS011;10231;47.702;9.826;2023-09-30T14:26:06;14.33;;;7.77;;
20140;SDS011;10231;47.702;9.826;2023-09-30T14:28:36;17.27;;;7.30;;
20140;SDS011;10231;47.702;9.826;2023-09-30T14:31:06;16.07;;;7.60;;
20140;SDS011;10231;47.702;9.826;2023-09-30T14:33:35;13.53;;;6.60;;
20140;SDS011;10231;47.702;9.826;2023-09-30T14:36:02;13.17;;;6.87;;
20140;SDS011;10231;47.702;9.826;2023-09-30T14:38:39;14.70;;;7.37;;
20140;SDS011;10231;47.702;9.826;2023-09-30T14:41:08;15.30;;;8.20;;
20140;SDS011;10231;47.702;9.826;2023-09-30T14:43:36;14.83;;;7.07;;
20140;SDS011;10231;47.702;9.826;2023-09-30T14:46:04;14.67;;;7.53;;
20140;SDS011;10231;47.702;9.826;2023-09-30T14:48:33;12.70;;;7.27;;
20140;SDS011;10231;47.702;9.826;2023-09-30T14:51:01;13.60;;;7.10;;
20140;SDS011;10231;47.702;9.826;2023-09-30T14:53:30;14.53;;;7.77;;
20140;SDS011;10231;47.702;9.826;2023-09-30T14:55:57;14.63;;;7.30;;
20140;SDS011;10231;47.702;9.826;2023-09-30T14:58:24;13.80;;;7.30;;
20140;SDS011;10231;47.702;9.826;2023-09-30T15:00:52;13.73;;;7.03;;